createdAt,value
2023-04-09T00:02:05.277Z,89.77
2023-04-09T00:04:32.482Z,115.70
2023-04-09T00:06:59.636Z,149.70
2023-04-09T00:09:26.709Z,134.50
2023-04-09T00:11:53.790Z,132.50
2023-04-09T00:14:20.905Z,119.87
2023-04-09T00:16:47.965Z,114.17
2023-04-09T00:19:15.321Z,105.83
2023-04-09T00:21:42.458Z,94.83
2023-04-09T00:24:09.541Z,118.33
2023-04-09T00:26:36.709Z,99.50
2023-04-09T00:29:03.903Z,113.13
2023-04-09T00:31:31.202Z,100.27
2023-04-09T00:33:58.336Z,95.93
2023-04-09T00:36:27.112Z,86.18
2023-04-09T00:38:54.449Z,89.13
2023-04-09T00:41:21.822Z,79.97
2023-04-09T00:43:48.980Z,73.00
2023-04-09T00:46:16.349Z,76.07
2023-04-09T00:48:43.561Z,72.83
2023-04-09T00:51:10.875Z,73.87
2023-04-09T00:53:37.957Z,88.87
2023-04-09T00:56:05.279Z,72.07
2023-04-09T00:58:32.450Z,86.87
2023-04-09T01:00:59.537Z,75.93
2023-04-09T01:03:26.958Z,66.37
2023-04-09T01:06:00.320Z,69.93
2023-04-09T01:08:27.415Z,56.43
2023-04-09T01:11:00.336Z,58.87
2023-04-09T01:13:44.057Z,60.00
2023-04-09T01:16:11.413Z,51.93
2023-04-09T01:18:44.172Z,65.50
2023-04-09T01:21:12.761Z,59.60
2023-04-09T01:23:54.858Z,54.60
2023-04-09T01:26:27.864Z,53.23
2023-04-09T01:28:55.086Z,53.03
2023-04-09T01:31:24.030Z,48.13
2023-04-09T01:33:51.154Z,54.40
2023-04-09T01:36:18.227Z,51.77
2023-04-09T01:38:45.779Z,49.27
2023-04-09T01:41:14.862Z,51.63
2023-04-09T01:43:42.329Z,51.50
2023-04-09T01:46:09.534Z,52.07
2023-04-09T01:48:36.751Z,47.90
2023-04-09T01:51:03.892Z,53.77
2023-04-09T01:53:31.180Z,48.27
2023-04-09T01:56:01.602Z,67.43
2023-04-09T01:58:28.819Z,73.03
2023-04-09T02:01:16.318Z,82.53
2023-04-09T02:03:50.454Z,88.80
2023-04-09T02:06:32.546Z,97.33
2023-04-09T02:09:00.122Z,88.17
2023-04-09T02:11:27.521Z,79.03
2023-04-09T02:13:54.709Z,84.80
2023-04-09T02:16:21.952Z,79.93
2023-04-09T02:18:50.995Z,79.50
2023-04-09T02:21:18.713Z,74.73
2023-04-09T02:23:45.896Z,70.33
2023-04-09T02:26:12.986Z,66.50
2023-04-09T02:28:40.087Z,71.27
2023-04-09T02:31:07.221Z,76.53
2023-04-09T02:33:34.377Z,78.20
2023-04-09T02:36:01.527Z,73.53
2023-04-09T02:38:28.621Z,80.63
2023-04-09T02:40:55.697Z,75.33
2023-04-09T02:43:22.862Z,58.83
2023-04-09T02:45:49.981Z,61.47
2023-04-09T02:48:17.073Z,56.37
2023-04-09T02:50:44.175Z,65.43
2023-04-09T02:53:11.270Z,57.77
2023-04-09T02:55:38.369Z,69.97
2023-04-09T02:58:05.633Z,87.27
2023-04-09T03:00:32.802Z,106.90
2023-04-09T03:03:00.042Z,138.43
2023-04-09T03:05:27.258Z,108.73
2023-04-09T03:07:54.940Z,84.27
2023-04-09T03:10:22.047Z,83.57
2023-04-09T03:12:49.178Z,90.47
2023-04-09T03:15:16.794Z,102.20
2023-04-09T03:17:43.910Z,54.97
2023-04-09T03:20:11.263Z,53.23
2023-04-09T03:22:38.702Z,82.10
2023-04-09T03:25:06.484Z,79.20
2023-04-09T03:27:33.684Z,76.70
2023-04-09T03:30:00.883Z,70.90
2023-04-09T03:32:28.031Z,77.50
2023-04-09T03:34:55.315Z,68.40
2023-04-09T03:37:22.415Z,66.73
2023-04-09T03:39:49.504Z,64.90
2023-04-09T03:42:16.619Z,65.75
2023-04-09T03:44:43.682Z,61.97
2023-04-09T03:47:10.783Z,57.47
2023-04-09T03:49:38.079Z,61.73
2023-04-09T03:52:05.227Z,61.93
2023-04-09T03:54:32.327Z,71.37
2023-04-09T03:56:59.453Z,68.67
2023-04-09T03:59:26.534Z,81.67
2023-04-09T04:01:53.794Z,72.30
2023-04-09T04:04:23.600Z,89.83
2023-04-09T04:06:51.442Z,77.27
2023-04-09T04:09:18.639Z,73.87
2023-04-09T04:11:45.852Z,76.40
2023-04-09T04:14:12.928Z,75.77
2023-04-09T04:16:43.280Z,76.73
2023-04-09T04:19:10.406Z,70.37
2023-04-09T04:21:37.494Z,70.53
2023-04-09T04:24:04.778Z,69.90
2023-04-09T04:26:31.919Z,71.07
2023-04-09T04:28:58.991Z,66.90
2023-04-09T04:31:26.112Z,66.17
2023-04-09T04:33:53.267Z,61.10
2023-04-09T04:36:20.342Z,64.87
2023-04-09T04:38:47.443Z,66.10
2023-04-09T04:41:14.555Z,70.53
2023-04-09T04:43:41.644Z,87.67
2023-04-09T04:46:08.759Z,95.67
2023-04-09T04:48:35.968Z,87.17
2023-04-09T04:51:03.127Z,85.50
2023-04-09T04:53:30.286Z,74.93
2023-04-09T04:55:57.479Z,78.27
2023-04-09T04:58:25.767Z,75.90
2023-04-09T05:00:52.917Z,78.77
2023-04-09T05:03:20.091Z,73.00
2023-04-09T05:05:47.304Z,66.13
2023-04-09T05:08:14.432Z,69.00
2023-04-09T05:10:43.084Z,69.17
2023-04-09T05:13:10.279Z,68.20
2023-04-09T05:15:40.652Z,61.43
2023-04-09T05:18:08.227Z,57.23
2023-04-09T05:20:35.611Z,53.13
2023-04-09T05:23:02.704Z,46.53
2023-04-09T05:25:29.863Z,47.73
2023-04-09T05:27:57.290Z,52.40
2023-04-09T05:30:24.423Z,49.00
2023-04-09T05:32:51.671Z,55.27
2023-04-09T05:35:18.846Z,46.33
2023-04-09T05:37:45.958Z,47.07
2023-04-09T05:40:13.413Z,48.65
2023-04-09T05:42:40.561Z,51.83
2023-04-09T05:45:07.961Z,49.43
2023-04-09T05:47:35.149Z,53.80
2023-04-09T05:50:02.282Z,60.00
2023-04-09T05:52:30.054Z,58.47
2023-04-09T05:54:57.162Z,61.20
2023-04-09T05:57:24.293Z,55.03
2023-04-09T05:59:51.399Z,54.50
2023-04-09T06:02:18.647Z,55.77
2023-04-09T06:04:45.976Z,65.90
2023-04-09T06:07:13.163Z,95.43
2023-04-09T06:09:40.488Z,89.20
2023-04-09T06:12:07.668Z,69.13
2023-04-09T06:14:34.797Z,62.60
2023-04-09T06:17:02.023Z,63.57
2023-04-09T06:19:29.164Z,72.60
2023-04-09T06:21:56.333Z,76.13
2023-04-09T06:24:23.690Z,68.33
2023-04-09T06:26:50.825Z,76.47
2023-04-09T06:29:17.922Z,66.57
2023-04-09T06:31:45.248Z,70.43
2023-04-09T06:34:12.342Z,71.78
2023-04-09T06:36:40.520Z,61.75
2023-04-09T06:39:07.858Z,70.65
2023-04-09T06:41:35.102Z,55.65
2023-04-09T06:44:02.322Z,53.50
2023-04-09T06:46:29.649Z,59.42
2023-04-09T06:48:56.765Z,54.90
2023-04-09T06:51:24.083Z,51.45
2023-04-09T06:53:51.447Z,50.90
2023-04-09T06:56:18.777Z,48.47
2023-04-09T06:58:45.919Z,43.60
2023-04-09T07:01:13.144Z,66.85
2023-04-09T07:03:40.704Z,39.25
2023-04-09T07:06:07.955Z,49.22
2023-04-09T07:08:35.373Z,55.30
2023-04-09T07:11:03.365Z,77.93
2023-04-09T07:13:31.271Z,66.95
2023-04-09T07:15:58.448Z,54.67
2023-04-09T07:18:25.637Z,56.95
2023-04-09T07:20:53.519Z,49.63
2023-04-09T07:23:20.692Z,60.38
2023-04-09T07:25:48.300Z,51.67
2023-04-09T07:28:15.457Z,46.97
2023-04-09T07:30:42.590Z,50.13
2023-04-09T07:33:11.217Z,46.40
2023-04-09T07:35:38.395Z,44.53
2023-04-09T07:38:05.662Z,40.30
2023-04-09T07:40:33.000Z,36.03
2023-04-09T07:43:00.133Z,36.63
2023-04-09T07:45:27.256Z,41.67
2023-04-09T07:47:54.367Z,46.42
2023-04-09T07:50:21.697Z,57.30
2023-04-09T07:52:48.829Z,52.67
2023-04-09T07:55:17.359Z,44.83
2023-04-09T07:57:45.850Z,49.28
2023-04-09T08:00:13.180Z,47.38
2023-04-09T08:02:40.735Z,38.20
2023-04-09T08:05:08.449Z,35.22
2023-04-09T08:07:35.746Z,31.70
2023-04-09T08:10:02.866Z,30.55
2023-04-09T08:12:29.937Z,28.50
2023-04-09T08:14:57.034Z,28.15
2023-04-09T08:17:24.650Z,31.33
2023-04-09T08:19:51.947Z,25.45
2023-04-09T08:22:19.097Z,29.67
2023-04-09T08:24:46.444Z,27.92
2023-04-09T08:27:13.689Z,28.05
2023-04-09T08:29:42.614Z,24.42
2023-04-09T08:32:09.863Z,51.13
2023-04-09T08:34:37.489Z,34.20
2023-04-09T08:37:04.671Z,33.10
2023-04-09T08:39:31.768Z,28.88
2023-04-09T08:42:02.464Z,31.33
2023-04-09T08:44:29.768Z,29.75
2023-04-09T08:46:58.516Z,25.58
2023-04-09T08:49:26.754Z,21.42
2023-04-09T08:51:53.882Z,22.98
2023-04-09T08:54:21.072Z,23.27
2023-04-09T08:56:48.261Z,35.20
2023-04-09T08:59:19.248Z,22.80
2023-04-09T09:01:47.968Z,20.17
2023-04-09T09:04:15.402Z,24.90
2023-04-09T09:06:42.687Z,24.23
2023-04-09T09:09:13.500Z,28.73
2023-04-09T09:11:41.717Z,24.70
2023-04-09T09:14:19.017Z,26.58
2023-04-09T09:16:58.642Z,22.08
2023-04-09T09:19:26.096Z,18.52
2023-04-09T09:21:59.324Z,19.33
2023-04-09T09:24:26.488Z,18.48
2023-04-09T09:26:57.473Z,19.20
2023-04-09T09:29:25.178Z,17.80
2023-04-09T09:31:52.953Z,21.15
2023-04-09T09:34:21.343Z,18.23
2023-04-09T09:36:48.440Z,20.02
2023-04-09T09:39:17.392Z,19.42
2023-04-09T09:41:48.881Z,19.17
2023-04-09T09:44:31.472Z,17.17
2023-04-09T09:46:58.713Z,17.27
2023-04-09T09:49:25.904Z,17.45
2023-04-09T09:51:53.377Z,18.17
2023-04-09T09:54:20.533Z,16.52
2023-04-09T09:56:47.781Z,17.10
2023-04-09T09:59:27.092Z,16.52
2023-04-09T10:01:58.012Z,17.77
2023-04-09T10:04:25.237Z,16.35
2023-04-09T10:06:53.462Z,16.52
2023-04-09T10:09:20.853Z,27.30
2023-04-09T10:11:48.827Z,18.02
2023-04-09T10:14:16.089Z,22.55
2023-04-09T10:16:43.237Z,22.88
2023-04-09T10:19:14.163Z,22.02
2023-04-09T10:22:00.197Z,21.77
2023-04-09T10:24:27.331Z,18.13
2023-04-09T10:26:54.879Z,20.98
2023-04-09T10:29:27.891Z,26.73
2023-04-09T10:31:55.805Z,24.73
2023-04-09T10:34:23.605Z,24.73
2023-04-09T10:36:53.534Z,22.33
2023-04-09T10:39:20.677Z,25.00
2023-04-09T10:41:48.830Z,34.22
2023-04-09T10:44:22.723Z,27.80
2023-04-09T10:46:51.140Z,29.80
2023-04-09T10:49:19.178Z,26.52
2023-04-09T10:51:49.979Z,22.33
2023-04-09T10:54:35.219Z,25.92
2023-04-09T10:57:08.621Z,23.27
2023-04-09T10:59:41.143Z,23.40
2023-04-09T11:02:09.099Z,25.25
2023-04-09T11:04:40.342Z,24.08
2023-04-09T11:07:07.537Z,20.83
2023-04-09T11:09:38.061Z,19.13
2023-04-09T11:12:05.243Z,25.02
2023-04-09T11:14:32.318Z,26.20
2023-04-09T11:16:59.446Z,26.02
2023-04-09T11:19:27.018Z,25.63
2023-04-09T11:21:54.103Z,22.38
2023-04-09T11:24:21.236Z,24.13
2023-04-09T11:26:49.150Z,21.30
2023-04-09T11:29:16.679Z,21.15
2023-04-09T11:31:47.069Z,20.85
2023-04-09T11:34:14.358Z,21.10
2023-04-09T11:36:41.585Z,21.58
2023-04-09T11:39:08.690Z,23.15
2023-04-09T11:41:38.798Z,27.48
2023-04-09T11:44:06.493Z,30.67
2023-04-09T11:46:33.740Z,30.10
2023-04-09T11:49:01.058Z,26.73
2023-04-09T11:51:28.451Z,28.75
2023-04-09T11:53:55.557Z,25.17
2023-04-09T11:56:22.708Z,27.00
2023-04-09T11:58:49.875Z,29.25
2023-04-09T12:01:17.003Z,29.02
2023-04-09T12:03:44.220Z,28.55
2023-04-09T12:06:11.366Z,25.77
2023-04-09T12:08:38.526Z,27.65
2023-04-09T12:11:16.095Z,32.80
2023-04-09T12:13:44.549Z,34.35
2023-04-09T12:16:14.661Z,37.17
2023-04-09T12:18:42.075Z,35.35
2023-04-09T12:21:09.446Z,37.33
2023-04-09T12:23:36.570Z,33.63
2023-04-09T12:26:03.824Z,50.47
2023-04-09T12:28:31.273Z,44.25
2023-04-09T12:30:59.439Z,52.22
2023-04-09T12:33:27.190Z,37.55
2023-04-09T12:35:54.439Z,34.70
2023-04-09T12:38:21.556Z,27.25
2023-04-09T12:40:48.683Z,29.20
2023-04-09T12:43:15.841Z,31.13
2023-04-09T12:45:42.965Z,29.73
2023-04-09T12:48:10.065Z,32.67
2023-04-09T12:50:37.171Z,31.70
2023-04-09T12:53:04.286Z,39.30
2023-04-09T12:55:31.598Z,30.80
2023-04-09T12:57:58.741Z,21.17
2023-04-09T13:00:25.812Z,20.73
2023-04-09T13:02:53.241Z,24.15
2023-04-09T13:05:20.603Z,26.85
2023-04-09T13:07:47.727Z,18.77
2023-04-09T13:10:14.819Z,18.83
2023-04-09T13:12:42.019Z,16.98
2023-04-09T13:15:09.242Z,34.50
2023-04-09T13:17:36.399Z,18.83
2023-04-09T13:20:03.775Z,16.80
2023-04-09T13:22:30.980Z,19.02
2023-04-09T13:24:58.106Z,20.85
2023-04-09T13:27:25.520Z,15.82
2023-04-09T13:29:52.585Z,18.92
2023-04-09T13:32:21.854Z,16.65
2023-04-09T13:34:49.351Z,18.17
2023-04-09T13:37:16.587Z,18.10
2023-04-09T13:39:44.748Z,31.88
2023-04-09T13:42:14.087Z,23.17
2023-04-09T13:44:44.508Z,16.58
2023-04-09T13:47:13.148Z,16.13
2023-04-09T13:49:40.746Z,17.45
2023-04-09T13:52:07.854Z,15.25
2023-04-09T13:54:35.419Z,20.17
2023-04-09T13:57:02.724Z,28.13
2023-04-09T13:59:29.788Z,19.35
2023-04-09T14:01:57.035Z,25.77
2023-04-09T14:04:24.220Z,36.50
2023-04-09T14:06:51.337Z,27.92
2023-04-09T14:09:18.441Z,25.70
2023-04-09T14:11:45.678Z,19.52
2023-04-09T14:14:12.826Z,24.38
2023-04-09T14:16:40.017Z,26.13
2023-04-09T14:19:07.316Z,22.95
2023-04-09T14:21:34.534Z,17.17
2023-04-09T14:24:01.751Z,22.42
2023-04-09T14:26:29.179Z,18.35
2023-04-09T14:28:56.351Z,16.20
2023-04-09T14:31:23.801Z,20.17
2023-04-09T14:33:51.057Z,16.27
2023-04-09T14:36:18.226Z,19.45
2023-04-09T14:38:45.906Z,19.55
2023-04-09T14:41:13.030Z,20.83
2023-04-09T14:43:40.152Z,19.77
2023-04-09T14:46:11.654Z,24.33
2023-04-09T14:48:42.438Z,15.57
2023-04-09T14:51:10.766Z,16.70
2023-04-09T14:53:38.138Z,13.60
2023-04-09T14:56:05.519Z,14.18
2023-04-09T14:58:32.604Z,33.58
2023-04-09T15:00:59.722Z,20.70
2023-04-09T15:03:26.940Z,16.90
2023-04-09T15:05:54.234Z,19.60
2023-04-09T15:08:21.564Z,23.50
2023-04-09T15:10:48.709Z,28.30
2023-04-09T15:13:16.019Z,26.20
2023-04-09T15:15:44.873Z,31.98
2023-04-09T15:18:11.990Z,37.83
2023-04-09T15:20:39.597Z,29.42
2023-04-09T15:23:06.720Z,28.92
2023-04-09T15:25:33.886Z,26.52
2023-04-09T15:28:02.257Z,23.60
2023-04-09T15:30:29.546Z,23.92
2023-04-09T15:32:56.686Z,29.42
2023-04-09T15:35:29.332Z,27.17
2023-04-09T15:37:57.344Z,26.88
2023-04-09T15:40:24.573Z,32.90
2023-04-09T15:42:51.675Z,35.13
2023-04-09T15:45:18.935Z,44.30
2023-04-09T15:47:46.442Z,46.65
2023-04-09T15:50:13.772Z,42.63
2023-04-09T15:52:41.190Z,41.65
2023-04-09T15:55:08.706Z,41.22
2023-04-09T15:57:35.866Z,33.05
2023-04-09T16:00:03.098Z,33.55
2023-04-09T16:02:30.366Z,34.03
2023-04-09T16:04:57.527Z,32.65
2023-04-09T16:07:24.776Z,32.25
2023-04-09T16:09:52.257Z,34.55
2023-04-09T16:12:19.853Z,30.52
2023-04-09T16:14:47.224Z,37.08
2023-04-09T16:17:15.260Z,37.53
2023-04-09T16:19:43.267Z,35.85
2023-04-09T16:22:12.029Z,38.10
2023-04-09T16:24:40.612Z,31.95
2023-04-09T16:27:08.123Z,29.02
2023-04-09T16:29:35.923Z,25.98
2023-04-09T16:32:04.024Z,27.45
2023-04-09T16:34:32.127Z,25.05
2023-04-09T16:36:59.590Z,26.65
2023-04-09T16:39:26.689Z,32.85
2023-04-09T16:41:53.802Z,36.78
2023-04-09T16:44:20.953Z,41.63
2023-04-09T16:46:49.132Z,52.00
2023-04-09T16:49:16.271Z,42.13
2023-04-09T16:51:43.569Z,42.67
2023-04-09T16:54:11.010Z,42.80
2023-04-09T16:56:38.186Z,45.95
2023-04-09T16:59:05.336Z,42.05
2023-04-09T17:01:32.536Z,46.63
2023-04-09T17:04:01.957Z,41.33
2023-04-09T17:06:29.395Z,49.38
2023-04-09T17:08:57.334Z,41.40
2023-04-09T17:11:24.481Z,41.67
2023-04-09T17:13:51.641Z,45.90
2023-04-09T17:16:18.797Z,53.47
2023-04-09T17:18:45.909Z,54.78
2023-04-09T17:21:13.090Z,46.53
2023-04-09T17:23:40.958Z,47.40
2023-04-09T17:26:08.140Z,64.70
2023-04-09T17:28:35.331Z,51.08
2023-04-09T17:31:02.498Z,65.85
2023-04-09T17:33:29.728Z,84.47
2023-04-09T17:35:57.691Z,67.70
2023-04-09T17:38:27.009Z,68.90
2023-04-09T17:40:54.292Z,83.38
2023-04-09T17:43:21.460Z,110.07
2023-04-09T17:45:49.293Z,87.38
2023-04-09T17:48:16.709Z,78.70
2023-04-09T17:50:43.919Z,80.28
2023-04-09T17:53:11.591Z,124.30
2023-04-09T17:55:38.765Z,132.20
2023-04-09T17:58:05.954Z,121.95
2023-04-09T18:00:34.772Z,80.45
2023-04-09T18:03:02.362Z,92.97
2023-04-09T18:05:29.926Z,86.60
2023-04-09T18:07:57.297Z,85.22
2023-04-09T18:10:24.434Z,124.13
2023-04-09T18:12:51.874Z,124.18
2023-04-09T18:15:19.205Z,103.30
2023-04-09T18:17:46.550Z,91.70
2023-04-09T18:20:15.308Z,79.22
2023-04-09T18:22:42.882Z,109.35
2023-04-09T18:25:10.361Z,122.85
2023-04-09T18:27:37.489Z,115.25
2023-04-09T18:30:04.730Z,100.70
2023-04-09T18:32:32.249Z,91.90
2023-04-09T18:34:59.603Z,98.78
2023-04-09T18:37:27.739Z,105.43
2023-04-09T18:39:55.139Z,101.10
2023-04-09T18:42:22.328Z,99.30
2023-04-09T18:44:49.403Z,107.88
2023-04-09T18:47:16.476Z,124.60
2023-04-09T18:49:43.600Z,109.20
2023-04-09T18:52:10.776Z,106.47
2023-04-09T18:54:38.805Z,149.77
2023-04-09T18:57:06.443Z,112.47
2023-04-09T18:59:34.880Z,134.10
2023-04-09T19:02:05.874Z,96.63
2023-04-09T19:04:39.373Z,99.20
2023-04-09T19:07:07.028Z,101.07
2023-04-09T19:09:34.548Z,74.40
2023-04-09T19:12:01.950Z,86.07
2023-04-09T19:14:29.248Z,82.80
2023-04-09T19:16:57.045Z,74.83
2023-04-09T19:19:24.166Z,73.93
2023-04-09T19:21:51.362Z,78.37
2023-04-09T19:24:18.455Z,80.67
2023-04-09T19:26:45.623Z,75.18
2023-04-09T19:29:12.749Z,97.70
2023-04-09T19:31:39.956Z,107.77
2023-04-09T19:34:07.183Z,102.27
2023-04-09T19:36:34.278Z,100.47
2023-04-09T19:39:01.395Z,96.83
2023-04-09T19:41:28.543Z,83.10
2023-04-09T19:43:55.945Z,68.37
2023-04-09T19:46:23.108Z,74.53
2023-04-09T19:48:50.825Z,67.77
2023-04-09T19:51:18.471Z,71.13
2023-04-09T19:53:47.353Z,73.00
2023-04-09T19:56:14.601Z,72.18
2023-04-09T19:58:42.304Z,83.20
2023-04-09T20:01:09.822Z,85.37
2023-04-09T20:03:37.185Z,86.73
2023-04-09T20:06:09.135Z,90.13
2023-04-09T20:08:36.770Z,76.97
2023-04-09T20:11:03.932Z,71.93
2023-04-09T20:13:31.653Z,69.87
2023-04-09T20:15:58.845Z,63.20
2023-04-09T20:18:26.024Z,64.43
2023-04-09T20:20:53.188Z,73.27
2023-04-09T20:23:20.321Z,85.03
2023-04-09T20:25:47.455Z,84.17
2023-04-09T20:28:14.578Z,82.13
2023-04-09T20:30:42.959Z,70.50
2023-04-09T20:33:10.103Z,68.27
2023-04-09T20:35:37.332Z,67.17
2023-04-09T20:38:04.601Z,73.43
2023-04-09T20:40:31.949Z,70.07
2023-04-09T20:42:59.486Z,68.43
2023-04-09T20:45:26.628Z,61.00
2023-04-09T20:47:53.729Z,73.80
2023-04-09T20:50:20.865Z,72.33
2023-04-09T20:52:49.539Z,68.67
2023-04-09T20:55:16.755Z,62.03
2023-04-09T20:57:44.001Z,60.83
2023-04-09T21:00:11.387Z,68.33
2023-04-09T21:02:39.437Z,62.77
2023-04-09T21:05:19.520Z,61.83
2023-04-09T21:07:49.624Z,57.00
2023-04-09T21:10:16.776Z,50.30
2023-04-09T21:12:43.941Z,52.05
2023-04-09T21:15:11.433Z,56.17
2023-04-09T21:17:38.542Z,57.10
2023-04-09T21:20:06.146Z,64.15
2023-04-09T21:22:34.504Z,72.97
2023-04-09T21:25:03.035Z,67.10
2023-04-09T21:27:30.270Z,67.13
2023-04-09T21:29:57.588Z,64.45
2023-04-09T21:32:25.128Z,72.10
2023-04-09T21:34:52.437Z,80.87
2023-04-09T21:37:19.567Z,67.77
2023-04-09T21:39:48.612Z,64.40
2023-04-09T21:42:15.860Z,63.17
2023-04-09T21:44:42.971Z,64.20
2023-04-09T21:47:12.020Z,61.83
2023-04-09T21:49:40.422Z,52.47
2023-04-09T21:52:14.173Z,50.50
2023-04-09T21:54:42.112Z,61.10
2023-04-09T21:57:09.216Z,53.63
2023-04-09T21:59:36.427Z,59.47
2023-04-09T22:02:04.398Z,54.63
2023-04-09T22:04:31.661Z,57.93
2023-04-09T22:06:58.798Z,56.07
2023-04-09T22:09:26.354Z,59.67
2023-04-09T22:11:53.698Z,58.10
2023-04-09T22:14:22.008Z,61.27
2023-04-09T22:16:49.074Z,57.60
2023-04-09T22:19:16.597Z,60.10
2023-04-09T22:21:43.788Z,55.90
2023-04-09T22:24:11.241Z,43.80
2023-04-09T22:26:40.805Z,47.97
2023-04-09T22:29:08.297Z,49.00
2023-04-09T22:31:35.396Z,58.50
2023-04-09T22:34:17.212Z,59.17
2023-04-09T22:36:46.904Z,75.13
2023-04-09T22:39:13.983Z,61.33
2023-04-09T22:41:41.151Z,63.30
2023-04-09T22:44:09.434Z,70.13
2023-04-09T22:46:36.888Z,84.43
2023-04-09T22:49:05.266Z,79.40
2023-04-09T22:51:34.656Z,78.60
2023-04-09T22:54:02.205Z,63.03
2023-04-09T22:56:30.126Z,60.07
2023-04-09T22:58:57.277Z,77.97
2023-04-09T23:01:24.381Z,71.63
2023-04-09T23:03:51.618Z,80.83
2023-04-09T23:06:18.848Z,75.00
2023-04-09T23:08:46.478Z,72.37
2023-04-09T23:11:13.626Z,70.73
2023-04-09T23:13:40.811Z,73.83
2023-04-09T23:16:08.381Z,64.93
2023-04-09T23:18:35.747Z,67.37
2023-04-09T23:21:07.060Z,62.13
2023-04-09T23:23:34.550Z,63.30
2023-04-09T23:26:01.732Z,70.63
2023-04-09T23:28:29.027Z,67.47
2023-04-09T23:30:56.770Z,213.47
2023-04-09T23:33:23.997Z,127.83
2023-04-09T23:35:51.294Z,152.20
2023-04-09T23:38:18.767Z,129.63
2023-04-09T23:40:47.346Z,137.83
2023-04-09T23:43:14.539Z,114.53
2023-04-09T23:45:41.642Z,113.03
2023-04-09T23:48:09.134Z,107.03
2023-04-09T23:50:39.904Z,92.17
2023-04-09T23:53:07.561Z,90.73
2023-04-09T23:55:38.077Z,78.23
2023-04-09T23:58:05.706Z,90.73
